Time;durP1;ratioP1;P1;durP2;ratioP2;P2;SDS_P1;SDS_P2;PMS_P1;PMS_P2;Temp;Humidity;BMP_temperature;BMP_pressure;BME280_temperature;BME280_humidity;BME280_pressure;Samples;Min_cycle;Max_cycle;Signal;HPM_P1;HPM_P2
2022/03/31 00:00:32;;;;;;;6.18;5.57;;;18.90;44.00;;;;;;6189346;23;20167;-71
2022/03/31 00:03:01;;;;;;;6.00;5.50;;;18.90;44.00;;;;;;6215833;23;20245;-70
2022/03/31 00:05:28;;;;;;;6.63;6.03;;;18.80;44.00;;;;;;6189338;23;20512;-72
2022/03/31 00:07:56;;;;;;;6.22;5.55;;;18.90;44.10;;;;;;6189361;23;20175;-71
2022/03/31 00:10:24;;;;;;;6.55;5.80;;;18.90;44.10;;;;;;6217142;23;20196;-73
2022/03/31 00:12:51;;;;;;;6.07;5.47;;;18.80;44.10;;;;;;6195522;23;20251;-71
2022/03/31 00:15:19;;;;;;;5.75;5.25;;;18.80;44.10;;;;;;6190224;23;20193;-71
2022/03/31 00:17:46;;;;;;;5.85;5.25;;;18.80;44.10;;;;;;6217524;23;20160;-71
2022/03/31 00:20:14;;;;;;;6.32;5.63;;;18.80;44.10;;;;;;6220516;23;20159;-71
2022/03/31 00:22:42;;;;;;;6.15;5.55;;;18.80;44.10;;;;;;6191852;23;20195;-71
2022/03/31 00:25:10;;;;;;;6.15;5.55;;;18.80;44.20;;;;;;6191721;23;20682;-71
2022/03/31 00:27:38;;;;;;;6.07;5.57;;;18.80;44.20;;;;;;6199733;23;20178;-71
2022/03/31 00:30:06;;;;;;;6.25;5.65;;;18.80;44.20;;;;;;6220330;23;20212;-71
2022/03/31 00:32:33;;;;;;;5.93;5.32;;;18.80;44.20;;;;;;6210944;23;20187;-71
2022/03/31 00:35:01;;;;;;;6.43;5.82;;;18.80;44.20;;;;;;6191414;23;20203;-70
2022/03/31 00:37:30;;;;;;;6.18;5.53;;;18.80;44.20;;;;;;6192895;23;20172;-71
2022/03/31 00:39:57;;;;;;;6.13;5.53;;;18.80;44.20;;;;;;6217945;23;20164;-71
2022/03/31 00:42:24;;;;;;;6.13;5.53;;;18.80;44.20;;;;;;6191273;23;20195;-71
2022/03/31 00:44:51;;;;;;;6.05;5.50;;;18.80;44.20;;;;;;6217654;23;20187;-71
2022/03/31 00:47:18;;;;;;;5.55;5.05;;;18.70;44.10;;;;;;6217592;23;20167;-71
2022/03/31 00:49:45;;;;;;;5.88;5.30;;;18.80;44.20;;;;;;6191107;23;20192;-71
2022/03/31 00:52:13;;;;;;;5.65;5.15;;;18.70;44.00;;;;;;6191098;23;20195;-71
2022/03/31 00:54:41;;;;;;;6.50;5.90;;;18.80;44.10;;;;;;6190974;23;20171;-71
2022/03/31 00:57:10;;;;;;;6.22;5.70;;;18.70;44.00;;;;;;6190916;23;20599;-71
2022/03/31 00:59:37;;;;;;;6.32;5.72;;;18.70;44.10;;;;;;6218109;23;20239;-71
2022/03/31 01:02:04;;;;;;;5.75;5.20;;;18.70;44.00;;;;;;6217734;23;20187;-71
2022/03/31 01:04:34;;;;;;;5.78;5.22;;;18.70;44.10;;;;;;6191281;23;20600;-71
2022/03/31 01:07:02;;;;;;;5.53;5.03;;;18.70;44.00;;;;;;6191015;23;20175;-71
2022/03/31 01:09:31;;;;;;;5.72;5.22;;;18.70;44.00;;;;;;6217345;23;20233;-71
2022/03/31 01:12:01;;;;;;;6.13;5.53;;;18.70;44.00;;;;;;6191227;23;20561;-71
2022/03/31 01:14:27;;;;;;;6.35;5.75;;;18.70;44.00;;;;;;6190922;23;20178;-71
2022/03/31 01:16:55;;;;;;;6.28;5.68;;;18.70;44.00;;;;;;6217396;23;20218;-72
2022/03/31 01:19:23;;;;;;;5.28;4.78;;;18.70;44.00;;;;;;6191041;23;20183;-71
2022/03/31 01:21:50;;;;;;;5.80;5.30;;;18.60;44.00;;;;;;6217231;23;20730;-71
2022/03/31 01:24:18;;;;;;;6.57;5.97;;;18.60;43.90;;;;;;6191189;23;20175;-71
2022/03/31 01:26:45;;;;;;;5.88;5.38;;;18.60;44.00;;;;;;6218408;23;20612;-72
2022/03/31 01:29:12;;;;;;;5.47;5.05;;;18.60;44.00;;;;;;6191215;23;20528;-71
2022/03/31 01:31:39;;;;;;;5.80;5.30;;;18.60;43.90;;;;;;6217113;23;20179;-71
2022/03/31 01:34:07;;;;;;;5.38;4.88;;;18.60;43.90;;;;;;6190886;23;20171;-71
2022/03/31 01:36:35;;;;;;;5.32;4.93;;;18.60;43.80;;;;;;6190557;23;20619;-71
2022/03/31 01:39:02;;;;;;;5.38;4.88;;;18.60;43.60;;;;;;6190638;23;20210;-71
2022/03/31 01:41:30;;;;;;;5.82;5.32;;;18.60;43.80;;;;;;6217095;23;20155;-71
2022/03/31 01:43:57;;;;;;;5.80;5.30;;;18.60;43.70;;;;;;6217104;23;20611;-72
2022/03/31 01:46:24;;;;;;;5.22;4.78;;;18.50;43.70;;;;;;6190493;23;20168;-71
2022/03/31 01:48:52;;;;;;;5.30;4.90;;;18.50;43.70;;;;;;6190670;23;20175;-71
2022/03/31 01:51:20;;;;;;;4.68;4.28;;;18.50;43.60;;;;;;6217451;23;20211;-71
2022/03/31 01:53:47;;;;;;;5.55;5.05;;;18.50;43.60;;;;;;6191189;23;20205;-71
2022/03/31 01:56:15;;;;;;;4.97;4.57;;;18.50;43.70;;;;;;6190384;23;20515;-71
2022/03/31 01:58:43;;;;;;;5.70;5.20;;;18.50;43.70;;;;;;6217580;23;20214;-71
2022/03/31 02:01:10;;;;;;;5.70;5.20;;;18.50;43.70;;;;;;6190528;23;20222;-71
2022/03/31 02:03:37;;;;;;;4.78;4.38;;;18.50;43.70;;;;;;6190246;23;20196;-71
2022/03/31 02:06:04;;;;;;;5.15;4.75;;;18.50;43.70;;;;;;6217145;23;20692;-71
2022/03/31 02:08:31;;;;;;;5.60;5.10;;;18.50;43.50;;;;;;6190702;23;20254;-71
2022/03/31 02:10:58;;;;;;;5.10;4.60;;;18.50;43.50;;;;;;6217251;23;20210;-71
2022/03/31 02:13:25;;;;;;;5.13;4.63;;;18.50;43.50;;;;;;6204967;23;20191;-70
2022/03/31 02:15:54;;;;;;;4.88;4.50;;;18.50;43.50;;;;;;6201187;23;20172;-72
2022/03/31 02:18:22;;;;;;;5.43;4.93;;;18.50;43.50;;;;;;6197741;23;20178;-71
2022/03/31 02:20:49;;;;;;;5.05;4.55;;;18.50;43.50;;;;;;6190525;23;20486;-71
2022/03/31 02:23:16;;;;;;;5.00;4.50;;;18.50;43.50;;;;;;6191025;23;20195;-71
2022/03/31 02:25:43;;;;;;;5.15;4.75;;;18.50;43.60;;;;;;6190231;23;20172;-71
2022/03/31 02:28:10;;;;;;;4.88;4.47;;;18.50;43.60;;;;;;6190047;23;20181;-71
2022/03/31 02:30:38;;;;;;;5.10;4.70;;;18.40;43.60;;;;;;6189918;23;20211;-71
2022/03/31 02:33:07;;;;;;;4.43;4.07;;;18.50;43.60;;;;;;6216724;23;20233;-71
2022/03/31 02:35:34;;;;;;;4.80;4.40;;;18.40;43.50;;;;;;6190456;23;20175;-71
2022/03/31 02:38:01;;;;;;;4.93;4.53;;;18.40;43.60;;;;;;6216532;23;20249;-71
2022/03/31 02:40:27;;;;;;;4.60;4.30;;;18.40;43.70;;;;;;6189832;23;20164;-71
2022/03/31 02:42:54;;;;;;;5.03;4.63;;;18.40;43.70;;;;;;6189956;23;20531;-71
2022/03/31 02:45:22;;;;;;;4.78;4.38;;;18.40;43.60;;;;;;6189924;23;20171;-71
2022/03/31 02:47:49;;;;;;;4.60;4.20;;;18.40;43.60;;;;;;6189979;23;20171;-71
2022/03/31 02:50:18;;;;;;;6.18;4.78;;;18.40;43.70;;;;;;6189796;23;20198;-71
2022/03/31 02:55:29;;;;;;;5.22;4.82;;;18.30;43.60;;;;;;6190118;23;20164;-71
2022/03/31 02:57:57;;;;;;;5.00;4.60;;;18.30;43.60;;;;;;6216268;23;20609;-71
2022/03/31 03:00:25;;;;;;;4.68;4.28;;;18.30;43.70;;;;;;6216642;23;20170;-71
2022/03/31 03:02:53;;;;;;;5.10;4.70;;;18.30;43.90;;;;;;6216313;23;20242;-71
2022/03/31 03:05:22;;;;;;;4.68;4.35;;;18.30;43.60;;;;;;6216680;23;20222;-71
2022/03/31 03:07:49;;;;;;;5.03;4.63;;;18.30;43.50;;;;;;6216674;23;20166;-71
2022/03/31 03:10:16;;;;;;;4.95;4.55;;;18.30;43.50;;;;;;6189686;23;20187;-71
2022/03/31 03:12:44;;;;;;;4.63;4.22;;;18.30;43.60;;;;;;6189835;23;20202;-71
2022/03/31 03:15:11;;;;;;;5.07;4.68;;;18.30;43.50;;;;;;6190120;23;20203;-70
2022/03/31 03:17:41;;;;;;;5.00;4.60;;;18.30;43.50;;;;;;6190041;23;20175;-71
2022/03/31 03:20:11;;;;;;;4.95;4.55;;;18.30;43.50;;;;;;6216242;23;20163;-71
2022/03/31 03:22:41;;;;;;;4.65;4.25;;;18.30;43.40;;;;;;6189257;23;20670;-71
2022/03/31 03:25:09;;;;;;;5.55;5.05;;;18.30;43.30;;;;;;6189555;23;20167;-71
2022/03/31 03:27:35;;;;;;;5.50;5.00;;;18.30;43.10;;;;;;6216075;23;20546;-71
2022/03/31 03:30:03;;;;;;;4.82;4.45;;;18.30;43.00;;;;;;6189354;23;20278;-72
2022/03/31 03:32:30;;;;;;;5.40;4.20;;;18.30;43.00;;;;;;6189271;23;20658;-71
2022/03/31 03:34:56;;;;;;;4.80;4.40;;;18.30;43.10;;;;;;6189457;23;20176;-71
2022/03/31 03:37:24;;;;;;;4.53;4.13;;;18.30;43.00;;;;;;6189418;23;20176;-71
2022/03/31 03:39:52;;;;;;;5.25;4.75;;;18.30;43.10;;;;;;6189505;23;20174;-71
2022/03/31 03:42:19;;;;;;;4.80;4.40;;;18.30;43.10;;;;;;6189594;23;20580;-71
2022/03/31 03:44:47;;;;;;;5.47;4.97;;;18.30;43.00;;;;;;6216223;23;20238;-71
2022/03/31 03:47:14;;;;;;;4.88;4.47;;;18.30;42.90;;;;;;6189450;23;20255;-70
2022/03/31 03:49:41;;;;;;;4.22;3.92;;;18.30;42.90;;;;;;6189345;23;20195;-71
2022/03/31 03:52:09;;;;;;;4.40;4.10;;;18.30;42.90;;;;;;6188876;23;20295;-71
2022/03/31 03:54:36;;;;;;;4.80;4.40;;;18.30;42.80;;;;;;6215812;23;20187;-71
2022/03/31 03:57:05;;;;;;;4.55;4.25;;;18.30;42.70;;;;;;6189218;23;20171;-71
2022/03/31 03:59:32;;;;;;;5.03;4.63;;;18.30;42.70;;;;;;6189504;23;20171;-72
2022/03/31 04:02:00;;;;;;;4.63;4.30;;;18.40;42.70;;;;;;6215675;23;20184;-71
2022/03/31 04:04:29;;;;;;;5.05;4.63;;;18.30;42.70;;;;;;6189887;23;20167;-71
2022/03/31 04:06:56;;;;;;;4.35;4.00;;;18.30;42.70;;;;;;6189348;23;20636;-71
2022/03/31 04:09:23;;;;;;;4.55;4.22;;;18.30;42.70;;;;;;6191863;23;20175;-72
2022/03/31 04:11:50;;;;;;;5.32;4.82;;;18.30;42.70;;;;;;6216903;23;20195;-71
2022/03/31 04:14:19;;;;;;;4.85;4.45;;;18.30;42.70;;;;;;6189998;23;20175;-71
2022/03/31 04:16:46;;;;;;;4.88;4.47;;;18.30;42.70;;;;;;6189018;23;20554;-71
2022/03/31 04:19:13;;;;;;;4.70;4.30;;;18.30;42.70;;;;;;6215819;23;20167;-71
2022/03/31 04:21:40;;;;;;;4.93;4.53;;;18.30;42.70;;;;;;6215952;23;20168;-71
2022/03/31 04:24:07;;;;;;;5.10;4.70;;;18.30;42.70;;;;;;6215801;23;20242;-71
2022/03/31 04:26:35;;;;;;;4.70;4.30;;;18.30;42.70;;;;;;6216143;23;20242;-71
2022/03/31 04:29:02;;;;;;;4.43;4.10;;;18.30;42.70;;;;;;6215789;23;20163;-71
2022/03/31 04:31:31;;;;;;;5.32;4.82;;;18.30;42.70;;;;;;6215765;23;20186;-71
2022/03/31 04:33:58;;;;;;;4.38;4.07;;;18.30;42.70;;;;;;6189273;23;20623;-71
2022/03/31 04:36:25;;;;;;;4.70;4.30;;;18.40;42.70;;;;;;6189122;23;20227;-71
2022/03/31 04:38:52;;;;;;;5.40;4.90;;;18.40;42.70;;;;;;6189303;23;20524;-71
2022/03/31 04:41:19;;;;;;;4.30;3.95;;;18.40;42.70;;;;;;6189202;23;20175;-71
2022/03/31 04:43:47;;;;;;;4.47;4.18;;;18.40;42.70;;;;;;6215459;23;20180;-71
2022/03/31 04:46:14;;;;;;;4.97;4.57;;;18.40;42.60;;;;;;6189469;23;20207;-71
2022/03/31 04:48:42;;;;;;;5.35;4.85;;;18.40;42.50;;;;;;6215872;23;20175;-71
2022/03/31 04:51:09;;;;;;;5.00;4.60;;;18.40;42.50;;;;;;6188809;23;20262;-71
2022/03/31 04:53:36;;;;;;;4.60;4.30;;;18.40;42.40;;;;;;6215657;23;20203;-71
2022/03/31 04:56:04;;;;;;;4.82;4.43;;;18.50;42.50;;;;;;6189301;23;20171;-71
2022/03/31 04:58:31;;;;;;;5.10;4.70;;;18.50;42.50;;;;;;6216080;23;20214;-71
2022/03/31 05:00:58;;;;;;;4.88;4.47;;;18.50;42.40;;;;;;6189385;23;20167;-71
2022/03/31 05:03:25;;;;;;;4.97;4.57;;;18.50;42.30;;;;;;6215964;23;20266;-71
2022/03/31 05:05:53;;;;;;;4.80;4.40;;;18.50;42.20;;;;;;6217534;23;20163;-72
2022/03/31 05:08:20;;;;;;;4.75;4.38;;;18.50;42.20;;;;;;6190696;23;20222;-71
2022/03/31 05:10:47;;;;;;;4.72;4.40;;;18.50;42.20;;;;;;6191239;23;20201;-71
2022/03/31 05:13:14;;;;;;;5.10;4.65;;;18.50;42.20;;;;;;6191516;23;20254;-72
2022/03/31 05:15:41;;;;;;;5.10;4.70;;;18.50;42.20;;;;;;6217470;23;20198;-72
2022/03/31 05:18:08;;;;;;;5.07;4.68;;;18.50;42.00;;;;;;6217457;23;20187;-71
2022/03/31 05:20:35;;;;;;;4.93;4.53;;;18.50;42.00;;;;;;6190736;23;20176;-72
2022/03/31 05:23:04;;;;;;;5.15;4.65;;;18.50;43.00;;;;;;6190608;23;20195;-72
2022/03/31 05:25:31;;;;;;;5.03;4.63;;;18.50;42.30;;;;;;6190939;23;20603;-72
2022/03/31 05:28:00;;;;;;;4.65;3.97;;;18.50;42.90;;;;;;6191584;23;20178;-72
2022/03/31 05:30:27;;;;;;;4.47;4.18;;;18.60;42.80;;;;;;6194681;23;20172;-72
2022/03/31 05:32:53;;;;;;;5.18;4.70;;;18.60;42.90;;;;;;6190791;23;20199;-72
2022/03/31 05:35:21;;;;;;;4.60;4.20;;;18.60;42.70;;;;;;6191287;23;20246;-72
2022/03/31 05:37:48;;;;;;;4.70;4.30;;;18.60;42.80;;;;;;6197139;23;20175;-72
2022/03/31 05:40:17;;;;;;;4.93;4.53;;;18.60;42.60;;;;;;6219762;23;20619;-72
2022/03/31 05:42:44;;;;;;;4.90;4.50;;;18.70;43.00;;;;;;6190632;23;20207;-71
2022/03/31 05:45:12;;;;;;;5.00;4.38;;;18.70;42.80;;;;;;6190835;23;20247;-73
2022/03/31 05:47:40;;;;;;;4.85;4.18;;;18.70;42.70;;;;;;6190646;23;20175;-72
2022/03/31 05:50:08;;;;;;;4.60;4.20;;;18.70;42.70;;;;;;6190512;23;20250;-72
2022/03/31 05:52:38;;;;;;;4.85;4.45;;;18.70;42.90;;;;;;6190517;23;20199;-72
2022/03/31 05:55:06;;;;;;;5.07;4.63;;;18.70;42.70;;;;;;6190862;23;20202;-72
2022/03/31 05:57:35;;;;;;;5.18;4.68;;;18.70;42.50;;;;;;6190912;23;20616;-72
2022/03/31 06:00:03;;;;;;;5.07;4.68;;;18.70;42.50;;;;;;6190416;23;20199;-72
2022/03/31 06:02:38;;;;;;;4.65;4.25;;;18.70;42.60;;;;;;6216889;23;20199;-72
2022/03/31 06:05:06;;;;;;;5.07;4.68;;;18.70;42.60;;;;;;6217090;23;20175;-71
2022/03/31 06:07:33;;;;;;;5.07;4.60;;;18.70;42.60;;;;;;6190298;23;20226;-72
2022/03/31 06:10:00;;;;;;;4.80;4.40;;;18.70;42.60;;;;;;6190190;23;20176;-72
2022/03/31 06:12:26;;;;;;;5.38;4.97;;;18.70;42.50;;;;;;6190067;23;20203;-71
2022/03/31 06:14:55;;;;;;;5.10;4.68;;;18.70;42.50;;;;;;6190001;23;20259;-72
2022/03/31 06:17:21;;;;;;;5.03;4.28;;;18.70;42.50;;;;;;6190071;23;20178;-72
2022/03/31 06:19:48;;;;;;;5.00;4.55;;;18.70;42.60;;;;;;6190616;23;20164;-73
2022/03/31 06:22:15;;;;;;;4.90;4.50;;;18.70;42.50;;;;;;6190034;23;20184;-72
2022/03/31 06:24:43;;;;;;;4.90;4.50;;;18.70;42.50;;;;;;6190446;23;20259;-72
2022/03/31 06:27:11;;;;;;;5.80;4.85;;;18.70;42.50;;;;;;6190059;23;20653;-72
2022/03/31 06:29:38;;;;;;;5.30;4.88;;;18.70;42.30;;;;;;6190128;23;20175;-72
2022/03/31 06:32:08;;;;;;;4.82;4.22;;;18.70;42.20;;;;;;6216661;23;20249;-72
2022/03/31 06:34:36;;;;;;;5.40;4.90;;;18.70;42.40;;;;;;6190458;23;20253;-73
2022/03/31 06:37:03;;;;;;;5.38;4.88;;;18.70;42.40;;;;;;6216944;23;20159;-72
2022/03/31 06:39:30;;;;;;;5.03;4.53;;;18.70;42.30;;;;;;6190053;23;20175;-72
2022/03/31 06:41:57;;;;;;;5.53;4.93;;;18.80;42.30;;;;;;6216495;23;20262;-72
2022/03/31 06:44:24;;;;;;;5.43;4.45;;;18.80;42.20;;;;;;6190029;23;20182;-73
2022/03/31 06:46:52;;;;;;;5.03;4.53;;;18.80;42.20;;;;;;6190020;23;20176;-72
2022/03/31 06:49:23;;;;;;;6.00;4.15;;;18.80;42.20;;;;;;6190128;23;20179;-72
2022/03/31 06:51:50;;;;;;;5.72;5.20;;;18.80;42.20;;;;;;6190000;23;20639;-72
2022/03/31 06:54:18;;;;;;;5.32;4.82;;;18.80;42.00;;;;;;6190067;23;20235;-72
2022/03/31 06:56:46;;;;;;;5.22;4.72;;;18.80;42.00;;;;;;6189880;23;20226;-72
2022/03/31 06:59:13;;;;;;;6.25;5.10;;;18.80;41.90;;;;;;6189978;23;20172;-72
2022/03/31 07:01:40;;;;;;;5.03;4.60;;;18.80;41.80;;;;;;6189666;23;20178;-72
2022/03/31 07:04:08;;;;;;;4.95;4.55;;;18.80;41.80;;;;;;6216531;23;20191;-72
2022/03/31 07:06:36;;;;;;;4.75;4.35;;;18.80;41.80;;;;;;6190183;23;20171;-72
2022/03/31 07:09:03;;;;;;;4.85;4.45;;;18.90;41.90;;;;;;6189903;23;20171;-73
2022/03/31 07:11:30;;;;;;;5.18;4.68;;;18.90;41.90;;;;;;6189534;23;20219;-72
2022/03/31 07:14:00;;;;;;;5.30;4.80;;;18.80;41.70;;;;;;6189722;23;20229;-72
2022/03/31 07:16:28;;;;;;;6.07;5.47;;;18.90;41.80;;;;;;6216335;23;20155;-72
2022/03/31 07:18:55;;;;;;;5.00;4.60;;;18.90;42.00;;;;;;6189785;23;20175;-72
2022/03/31 07:21:23;;;;;;;5.38;4.80;;;18.90;41.70;;;;;;6216247;23;20243;-72
2022/03/31 07:23:52;;;;;;;4.60;4.20;;;18.90;41.70;;;;;;6216582;23;20195;-72
2022/03/31 07:26:19;;;;;;;5.00;4.50;;;18.90;41.70;;;;;;6189913;23;20176;-73
2022/03/31 07:28:47;;;;;;;5.60;5.05;;;18.90;41.60;;;;;;6216305;23;20484;-72
2022/03/31 07:31:14;;;;;;;5.53;5.03;;;18.90;41.60;;;;;;6216152;23;20663;-72
2022/03/31 07:33:41;;;;;;;5.60;5.20;;;19.00;41.50;;;;;;6189622;23;20525;-72
2022/03/31 07:36:09;;;;;;;5.25;4.75;;;19.00;41.50;;;;;;6216301;23;20175;-72
2022/03/31 07:38:35;;;;;;;6.35;4.95;;;19.00;41.60;;;;;;6216389;23;20238;-72
2022/03/31 07:41:05;;;;;;;5.43;4.95;;;19.00;41.30;;;;;;6190781;23;20171;-72
2022/03/31 07:43:32;;;;;;;4.63;4.22;;;19.00;41.30;;;;;;6190339;23;20196;-72
2022/03/31 07:46:00;;;;;;;5.18;4.68;;;19.00;41.30;;;;;;6189702;23;20229;-72
2022/03/31 07:48:27;;;;;;;5.85;4.78;;;19.10;41.20;;;;;;6189786;23;20246;-72
2022/03/31 07:50:56;;;;;;;5.10;4.70;;;19.10;41.10;;;;;;6191169;23;20174;-72
2022/03/31 07:53:23;;;;;;;4.85;4.43;;;19.10;41.10;;;;;;6195727;23;20706;-72
2022/03/31 07:55:50;;;;;;;5.90;4.72;;;19.10;41.10;;;;;;6196588;23;20176;-73
2022/03/31 07:58:19;;;;;;;4.97;4.57;;;19.10;41.00;;;;;;6216444;23;20174;-72
2022/03/31 08:00:50;;;;;;;5.25;4.75;;;19.10;41.00;;;;;;6215967;23;20484;-72
2022/03/31 08:03:17;;;;;;;5.85;5.18;;;19.20;41.10;;;;;;6189368;23;20206;-73
2022/03/31 08:05:44;;;;;;;7.07;4.88;;;19.20;41.20;;;;;;6192178;23;20167;-73
2022/03/31 08:08:11;;;;;;;6.03;5.07;;;19.20;41.20;;;;;;6191644;23;20607;-72
2022/03/31 08:10:38;;;;;;;5.65;4.88;;;19.20;41.20;;;;;;6189609;23;20182;-72
2022/03/31 08:13:06;;;;;;;6.22;5.15;;;19.20;41.20;;;;;;6189837;23;20210;-72
2022/03/31 08:15:34;;;;;;;7.10;5.60;;;19.10;41.10;;;;;;6216612;23;20650;-72
2022/03/31 08:18:02;;;;;;;5.32;4.78;;;19.10;41.00;;;;;;6190636;23;20183;-72
2022/03/31 08:20:29;;;;;;;8.32;6.90;;;19.10;41.10;;;;;;6190293;23;20172;-72
2022/03/31 08:22:57;;;;;;;7.60;6.78;;;19.20;44.40;;;;;;6190494;23;20253;-72
2022/03/31 08:25:24;;;;;;;7.10;5.90;;;19.10;46.00;;;;;;6215948;23;20607;-71
2022/03/31 08:27:51;;;;;;;6.43;5.82;;;19.20;46.10;;;;;;6189225;23;20176;-71
2022/03/31 08:30:19;;;;;;;7.47;6.20;;;19.20;45.90;;;;;;6189230;23;20221;-71
2022/03/31 08:32:48;;;;;;;6.25;5.65;;;19.20;45.40;;;;;;6189238;23;20694;-71
2022/03/31 08:35:16;;;;;;;6.43;5.82;;;19.20;45.40;;;;;;6189175;23;20251;-71
2022/03/31 08:37:43;;;;;;;6.25;5.65;;;19.20;45.20;;;;;;6189601;23;20630;-71
2022/03/31 08:40:12;;;;;;;6.13;5.07;;;19.20;44.80;;;;;;6217951;23;20678;-71
2022/03/31 08:42:39;;;;;;;5.25;4.75;;;19.20;44.70;;;;;;6190936;23;20226;-71
2022/03/31 08:45:08;;;;;;;5.97;5.30;;;19.20;44.40;;;;;;6217599;23;20520;-71
2022/03/31 08:47:35;;;;;;;6.10;5.28;;;19.20;44.20;;;;;;6191455;23;20171;-71
2022/03/31 08:50:04;;;;;;;5.57;4.90;;;19.20;43.50;;;;;;6190932;23;20230;-71
2022/03/31 08:52:31;;;;;;;4.95;4.47;;;19.20;43.30;;;;;;6217558;23;20192;-71
2022/03/31 08:54:58;;;;;;;5.72;5.13;;;19.20;42.50;;;;;;6190943;23;20171;-71
2022/03/31 08:57:26;;;;;;;6.00;5.40;;;19.20;42.30;;;;;;6217421;23;20168;-71
2022/03/31 08:59:53;;;;;;;5.75;5.05;;;19.20;42.20;;;;;;6217370;23;20679;-71
2022/03/31 09:02:24;;;;;;;5.65;5.07;;;19.20;42.20;;;;;;6217314;23;20195;-71
2022/03/31 09:05:00;;;;;;;5.55;5.05;;;19.30;42.20;;;;;;6191076;23;20176;-71
2022/03/31 09:07:29;;;;;;;6.95;5.20;;;19.20;42.10;;;;;;6217991;23;20151;-71
2022/03/31 09:09:56;;;;;;;5.35;4.85;;;19.30;41.90;;;;;;6217337;23;20557;-71
2022/03/31 09:12:26;;;;;;;5.72;5.03;;;19.30;41.90;;;;;;6217082;23;20183;-71
2022/03/31 09:14:54;;;;;;;5.50;5.00;;;19.30;41.80;;;;;;6190688;23;20254;-71
2022/03/31 09:17:21;;;;;;;5.50;4.95;;;19.30;41.70;;;;;;6190751;23;20176;-71
2022/03/31 09:19:48;;;;;;;6.70;6.10;;;19.40;41.70;;;;;;6190748;23;20229;-71
2022/03/31 09:22:15;;;;;;;6.32;5.35;;;19.40;41.60;;;;;;6189503;23;20655;-71
2022/03/31 09:24:44;;;;;;;6.00;4.90;;;19.40;41.60;;;;;;6190796;23;20584;-71
2022/03/31 09:27:11;;;;;;;5.03;4.63;;;19.40;41.40;;;;;;6217297;23;20507;-71
2022/03/31 09:29:38;;;;;;;5.28;4.78;;;19.50;41.40;;;;;;6217205;23;20163;-71
2022/03/31 09:32:09;;;;;;;6.25;5.65;;;19.50;41.50;;;;;;6216866;23;20194;-71
2022/03/31 09:34:40;;;;;;;5.45;4.93;;;19.50;41.40;;;;;;6190669;23;20175;-71
2022/03/31 09:37:08;;;;;;;5.90;5.30;;;19.50;41.30;;;;;;6190516;23;20505;-71
2022/03/31 09:39:34;;;;;;;5.47;4.90;;;19.50;41.20;;;;;;6191654;23;20175;-71
2022/03/31 09:42:10;;;;;;;6.28;4.88;;;19.60;41.30;;;;;;6190378;23;20191;-71
2022/03/31 09:44:37;;;;;;;5.32;4.78;;;19.60;41.00;;;;;;6190833;23;20182;-71
2022/03/31 09:47:04;;;;;;;6.88;6.25;;;19.60;41.00;;;;;;6190432;23;20230;-71
2022/03/31 09:49:31;;;;;;;7.97;5.53;;;19.60;40.90;;;;;;6216592;23;20484;-71
2022/03/31 09:51:59;;;;;;;6.35;5.75;;;19.70;41.00;;;;;;6190166;23;20195;-71
2022/03/31 09:54:29;;;;;;;6.13;5.53;;;19.80;41.10;;;;;;6190472;23;20203;-71
2022/03/31 09:56:57;;;;;;;5.78;5.22;;;19.80;40.80;;;;;;6190524;23;20170;-71
2022/03/31 09:59:31;;;;;;;5.22;4.72;;;19.90;40.70;;;;;;6190223;23;20175;-71
2022/03/31 10:01:58;;;;;;;6.47;5.88;;;19.90;40.50;;;;;;6216710;23;20207;-71
2022/03/31 10:04:25;;;;;;;5.32;4.82;;;20.00;40.50;;;;;;6190398;23;20254;-71
2022/03/31 10:06:52;;;;;;;5.57;5.05;;;20.00;40.50;;;;;;6190281;23;20254;-71
2022/03/31 10:09:19;;;;;;;5.93;5.22;;;20.00;40.50;;;;;;6190303;23;20175;-71
2022/03/31 10:11:48;;;;;;;5.93;5.43;;;20.00;40.50;;;;;;6216725;23;20168;-71
2022/03/31 10:14:19;;;;;;;5.43;4.93;;;20.00;40.50;;;;;;6190071;23;20187;-71
2022/03/31 10:16:50;;;;;;;5.65;5.15;;;20.00;41.00;;;;;;6190283;23;20167;-71
2022/03/31 10:19:28;;;;;;;6.55;5.57;;;20.10;40.40;;;;;;6216816;23;20567;-71
2022/03/31 10:22:00;;;;;;;5.70;5.20;;;20.10;40.20;;;;;;6190016;23;20199;-71
2022/03/31 10:24:41;;;;;;;6.18;5.57;;;20.10;40.30;;;;;;6189869;23;20164;-71
2022/03/31 10:27:09;;;;;;;5.40;4.90;;;20.10;40.20;;;;;;6190203;23;20167;-71
2022/03/31 10:29:40;;;;;;;5.72;5.22;;;20.20;40.30;;;;;;6190127;23;20172;-71
2022/03/31 10:32:20;;;;;;;5.65;5.13;;;20.20;40.20;;;;;;6190057;23;20253;-71
2022/03/31 10:34:48;;;;;;;5.57;5.07;;;20.30;40.00;;;;;;6190158;23;20171;-71
2022/03/31 10:37:17;;;;;;;5.57;5.07;;;20.30;40.00;;;;;;6189930;23;20171;-71
2022/03/31 10:39:56;;;;;;;5.43;4.93;;;20.40;40.00;;;;;;6189881;23;20278;-71
2022/03/31 10:42:23;;;;;;;5.68;5.03;;;20.40;40.00;;;;;;6190090;23;20709;-71
2022/03/31 10:44:50;;;;;;;5.28;4.82;;;20.40;39.80;;;;;;6190014;23;20199;-71
2022/03/31 10:47:19;;;;;;;5.57;5.07;;;20.40;39.80;;;;;;6190421;23;20172;-71
2022/03/31 10:49:52;;;;;;;5.97;5.35;;;20.50;39.90;;;;;;6190271;23;20167;-71
2022/03/31 10:52:23;;;;;;;6.40;5.88;;;20.50;40.10;;;;;;6189733;23;20647;-71
2022/03/31 10:54:50;;;;;;;5.60;5.10;;;20.50;39.80;;;;;;6189905;23;20246;-71
2022/03/31 10:57:18;;;;;;;6.18;4.80;;;20.50;40.40;;;;;;6189842;23;20171;-71
2022/03/31 10:59:46;;;;;;;5.55;5.05;;;20.60;39.70;;;;;;6190464;23;20207;-71
2022/03/31 11:02:15;;;;;;;6.47;5.82;;;20.50;39.70;;;;;;6216000;23;20202;-71
2022/03/31 11:04:47;;;;;;;6.28;5.65;;;20.60;39.60;;;;;;6216630;23;20156;-71
2022/03/31 11:07:16;;;;;;;5.65;5.15;;;20.60;39.50;;;;;;6189843;23;20222;-71
2022/03/31 11:09:44;;;;;;;5.95;5.35;;;20.60;39.60;;;;;;6189803;23;20174;-71
2022/03/31 11:12:26;;;;;;;5.97;5.03;;;20.60;39.60;;;;;;6216212;23;20233;-71
2022/03/31 11:15:03;;;;;;;5.93;5.40;;;20.60;39.60;;;;;;6216219;23;20151;-72
2022/03/31 11:17:30;;;;;;;5.60;5.10;;;20.60;39.70;;;;;;6189728;23;20513;-71
2022/03/31 11:20:00;;;;;;;6.07;5.47;;;20.60;39.50;;;;;;6189741;23;20254;-71
2022/03/31 11:22:28;;;;;;;6.43;5.78;;;20.60;39.60;;;;;;6216148;23;20191;-71
2022/03/31 11:24:56;;;;;;;6.38;5.78;;;20.60;39.70;;;;;;6190153;23;20611;-71
2022/03/31 11:27:36;;;;;;;5.38;4.88;;;20.60;39.70;;;;;;6190018;23;20726;-71
2022/03/31 11:30:05;;;;;;;5.50;5.05;;;20.60;39.70;;;;;;6216366;23;20206;-71
2022/03/31 11:32:32;;;;;;;5.85;5.35;;;20.60;39.60;;;;;;6189255;23;20205;-71
2022/03/31 11:35:00;;;;;;;5.43;4.88;;;20.60;39.70;;;;;;6189483;23;20172;-72
2022/03/31 11:37:27;;;;;;;6.07;5.47;;;20.60;39.60;;;;;;6189838;23;20176;-73
2022/03/31 11:39:55;;;;;;;6.10;5.50;;;20.60;39.60;;;;;;6189462;23;20199;-71
2022/03/31 11:42:22;;;;;;;6.35;5.75;;;20.60;39.50;;;;;;6216021;23;20663;-71
2022/03/31 11:44:49;;;;;;;5.15;4.65;;;20.60;39.50;;;;;;6189297;23;20218;-71
2022/03/31 11:47:20;;;;;;;5.38;4.88;;;20.60;39.50;;;;;;6215901;23;20247;-72
2022/03/31 11:49:57;;;;;;;5.18;4.78;;;20.60;39.50;;;;;;6189437;23;20182;-71
2022/03/31 11:52:30;;;;;;;5.07;4.68;;;20.60;39.30;;;;;;6189306;23;20195;-71
2022/03/31 11:55:00;;;;;;;5.22;4.72;;;20.70;39.40;;;;;;6216383;23;20171;-71
2022/03/31 11:57:28;;;;;;;5.50;5.00;;;20.70;39.50;;;;;;6215961;23;20632;-71
2022/03/31 11:59:55;;;;;;;5.43;4.93;;;20.70;39.50;;;;;;6189279;23;20606;-71
2022/03/31 12:02:22;;;;;;;5.70;5.20;;;20.60;39.50;;;;;;6211628;22;20206;-66
2022/03/31 12:04:49;;;;;;;4.93;4.53;;;20.60;39.40;;;;;;6189239;23;20242;-67
2022/03/31 12:07:17;;;;;;;5.80;5.30;;;20.60;39.50;;;;;;6216196;23;20160;-67
2022/03/31 12:09:48;;;;;;;5.65;5.15;;;20.60;39.50;;;;;;6189611;23;20254;-67
2022/03/31 12:12:16;;;;;;;5.60;5.10;;;20.60;39.50;;;;;;6189392;23;20494;-67
2022/03/31 12:14:53;;;;;;;5.03;4.63;;;20.60;39.50;;;;;;6190829;23;20245;-67
2022/03/31 12:17:20;;;;;;;5.85;5.25;;;20.60;39.50;;;;;;6191562;23;20590;-67
2022/03/31 12:19:47;;;;;;;5.50;4.97;;;20.60;39.50;;;;;;6217809;23;20167;-67
2022/03/31 12:22:15;;;;;;;5.15;4.53;;;20.70;39.50;;;;;;6191577;23;20262;-67
2022/03/31 12:24:52;;;;;;;6.18;5.63;;;20.70;39.60;;;;;;6218655;23;20165;-67
2022/03/31 12:27:19;;;;;;;5.80;5.20;;;20.70;39.40;;;;;;6191742;23;20170;-67
2022/03/31 12:29:46;;;;;;;5.93;5.32;;;20.70;39.40;;;;;;6191338;23;20564;-67
2022/03/31 12:32:14;;;;;;;5.20;4.70;;;20.70;39.30;;;;;;6191196;23;20706;-67
2022/03/31 12:34:53;;;;;;;6.18;5.57;;;20.70;40.00;;;;;;6217768;23;20187;-67
2022/03/31 12:37:27;;;;;;;5.88;5.38;;;20.70;39.30;;;;;;6191142;23;20685;-67
2022/03/31 12:39:55;;;;;;;5.47;4.97;;;20.70;39.30;;;;;;6191154;23;20605;-67
2022/03/31 12:42:22;;;;;;;5.60;5.10;;;20.70;39.50;;;;;;6217778;23;20168;-67
2022/03/31 12:44:49;;;;;;;5.63;5.13;;;20.70;39.30;;;;;;6191018;23;20163;-67
2022/03/31 12:47:20;;;;;;;6.03;5.43;;;20.70;39.30;;;;;;6191415;23;20175;-67
2022/03/31 12:49:47;;;;;;;5.88;5.35;;;20.70;39.30;;;;;;6191178;23;20198;-67
2022/03/31 12:52:15;;;;;;;5.38;4.88;;;20.70;39.30;;;;;;6217468;23;20622;-67
2022/03/31 12:54:48;;;;;;;5.82;5.32;;;20.70;39.40;;;;;;6190700;23;20191;-67